Time;durP1;ratioP1;P1;durP2;ratioP2;P2;SDS_P1;SDS_P2;PMS_P1;PMS_P2;Temp;Humidity;BMP_temperature;BMP_pressure;BME280_temperature;BME280_humidity;BME280_pressure;Samples;Min_cycle;Max_cycle;Signal;HPM_P1;HPM_P2
2022/04/08 00:00:45;;;;;;;1.27;1.10;;;5.00;99.90;;;;;;6165701;23;20063;-91
2022/04/08 00:03:17;;;;;;;1.63;1.33;;;5.10;99.90;;;;;;6164700;23;20059;-92
2022/04/08 00:06:08;;;;;;;2.15;1.00;;;5.10;99.90;;;;;;6166988;23;20111;-92
2022/04/08 00:08:36;;;;;;;1.77;1.23;;;5.00;99.90;;;;;;6143377;23;20023;-93
2022/04/08 00:11:13;;;;;;;4.72;1.55;;;6.20;99.90;;;;;;6166953;23;20017;-92
2022/04/08 00:13:45;;;;;;;1.75;1.02;;;5.40;99.90;;;;;;6191190;23;20019;-93
2022/04/08 00:16:11;;;;;;;7.80;1.50;;;5.00;99.90;;;;;;6142742;23;20445;-92
2022/04/08 00:18:41;;;;;;;1.23;1.10;;;5.10;99.90;;;;;;6167197;23;20091;-92
2022/04/08 00:21:32;;;;;;;1.48;1.10;;;5.00;99.90;;;;;;6193630;23;20017;-91
2022/04/08 00:24:19;;;;;;;3.35;1.20;;;5.00;99.90;;;;;;6167853;23;20020;-91
2022/04/08 00:26:53;;;;;;;1.92;1.15;;;5.00;99.90;;;;;;6166573;23;20024;-93
2022/04/08 00:29:30;;;;;;;1.30;0.73;;;5.00;99.90;;;;;;6172332;23;20024;-92
2022/04/08 00:32:08;;;;;;;0.73;0.65;;;5.60;99.90;;;;;;6221900;23;20053;-91
2022/04/08 00:34:39;;;;;;;1.45;1.35;;;6.10;99.90;;;;;;6172478;23;20023;-92
2022/04/08 00:37:27;;;;;;;2.30;1.13;;;4.90;99.90;;;;;;6196190;23;20102;-91
2022/04/08 00:39:58;;;;;;;2.80;0.60;;;4.90;99.90;;;;;;6197065;23;20020;-92
2022/04/08 00:42:31;;;;;;;3.55;1.13;;;5.10;99.90;;;;;;6196879;23;20064;-93
2022/04/08 00:45:07;;;;;;;3.78;0.80;;;5.30;99.90;;;;;;6195354;23;20035;-92
2022/04/08 00:47:48;;;;;;;2.10;0.95;;;3.90;99.90;;;;;;6195522;23;20016;-91
2022/04/08 00:50:35;;;;;;;;;;;;;;;;;;;;;
2022/04/08 00:53:07;;;;;;;2.72;0.70;;;4.80;99.90;;;;;;6197780;23;20023;-92
2022/04/08 00:55:37;;;;;;;1.08;0.57;;;4.00;99.90;;;;;;6220166;23;20024;-92
2022/04/08 00:58:09;;;;;;;1.35;0.73;;;4.40;99.90;;;;;;6195899;23;20447;-92
2022/04/08 01:00:37;;;;;;;0.25;0.25;;;4.60;99.90;;;;;;6195900;23;20024;-92
2022/04/08 01:03:06;;;;;;;1.00;0.60;;;4.60;99.90;;;;;;6194929;23;20017;-92
2022/04/08 01:05:42;;;;;;;0.85;0.60;;;4.50;99.90;;;;;;6169607;23;20052;-94
2022/04/08 01:08:20;;;;;;;1.75;0.47;;;4.40;99.90;;;;;;6196662;23;20016;-92
2022/04/08 01:10:47;;;;;;;0.57;0.57;;;4.40;99.90;;;;;;6197083;23;20071;-93
2022/04/08 01:13:19;;;;;;;0.50;0.50;;;4.40;99.90;;;;;;6221232;23;20127;-92
2022/04/08 01:18:58;;;;;;;1.67;0.90;;;5.10;99.90;;;;;;6197539;23;20064;-92
2022/04/08 01:21:27;;;;;;;0.68;0.68;;;4.10;99.90;;;;;;6171345;23;20016;-93
2022/04/08 01:24:15;;;;;;;;;;;;;;;;;;;;;
2022/04/08 01:27:02;;;;;;;3.50;0.60;;;3.70;99.90;;;;;;6219746;23;20018;-93
2022/04/08 01:29:31;;;;;;;0.43;0.43;;;4.10;99.90;;;;;;6195216;23;20020;-91
2022/04/08 01:31:57;;;;;;;0.50;0.50;;;4.10;99.90;;;;;;6193462;23;20131;-93
2022/04/08 01:34:53;;;;;;;;;;;;;;;;;;;;;
2022/04/08 01:37:24;;;;;;;0.65;0.60;;;4.60;99.90;;;;;;6198803;23;20020;-93
2022/04/08 01:40:02;;;;;;;0.32;0.32;;;3.90;99.90;;;;;;6196425;23;20012;-93
2022/04/08 01:42:37;;;;;;;;;;;3.80;99.90;;;;;;6198380;23;20016;-93
2022/04/08 01:45:18;;;;;;;;;;;;;;;;;;;;;
2022/04/08 01:48:03;;;;;;;1.88;0.77;;;3.80;99.90;;;;;;6220548;23;20074;-93
2022/04/08 01:50:46;;;;;;;1.20;0.88;;;3.80;99.90;;;;;;6197045;23;20074;-94
2022/04/08 01:53:29;;;;;;;;;;;;;;;;;;;;;
2022/04/08 01:56:02;;;;;;;1.20;0.80;;;3.90;99.90;;;;;;6219096;23;20016;-93
2022/04/08 01:58:31;;;;;;;4.47;1.08;;;4.30;99.90;;;;;;6169849;23;20016;-92
2022/04/08 02:01:14;;;;;;;2.22;1.00;;;3.60;99.90;;;;;;6222830;23;20123;-93
2022/04/08 02:03:52;;;;;;;;;;;;;;;;;;;;;
2022/04/08 02:06:44;;;;;;;6.32;1.27;;;3.70;99.90;;;;;;6199097;23;20012;-94
2022/04/08 02:09:12;;;;;;;1.00;0.90;;;3.60;99.90;;;;;;6219808;23;20020;-93
2022/04/08 02:11:50;;;;;;;3.78;0.80;;;3.10;99.90;;;;;;6193618;23;20056;-94
2022/04/08 02:14:26;;;;;;;3.00;0.90;;;3.90;99.90;;;;;;6195477;23;20349;-94
2022/04/08 02:16:59;;;;;;;2.33;0.80;;;2.60;99.90;;;;;;6196489;23;20012;-93
2022/04/08 02:19:30;;;;;;;0.90;0.90;;;3.70;99.90;;;;;;6195775;23;20016;-92
2022/04/08 02:22:07;;;;;;;;;;;;;;;;;;;;;
2022/04/08 02:24:34;;;;;;;3.20;1.00;;;4.30;99.90;;;;;;6221153;23;20590;-93
2022/04/08 02:27:16;;;;;;;1.15;0.43;;;3.50;99.90;;;;;;6197081;23;20027;-93
2022/04/08 02:32:50;;;;;;;1.50;1.10;;;2.30;99.90;;;;;;6222558;23;20059;-93
2022/04/08 02:35:21;;;;;;;1.65;1.55;;;4.40;99.90;;;;;;6151848;23;20027;-93
2022/04/08 02:37:49;;;;;;;7.80;1.30;;;3.20;99.90;;;;;;6198564;23;20055;-94
2022/04/08 02:40:21;;;;;;;7.15;1.73;;;4.50;99.90;;;;;;6197405;23;20026;-93
2022/04/08 02:42:58;;;;;;;3.33;1.08;;;3.20;99.90;;;;;;6194990;23;20016;-94
2022/04/08 02:45:37;;;;;;;5.28;1.10;;;4.40;99.90;;;;;;6174126;23;20020;-92
2022/04/08 02:48:03;;;;;;;2.25;0.98;;;3.80;99.90;;;;;;6170389;23;20091;-91
2022/04/08 02:50:31;;;;;;;3.45;1.42;;;3.10;99.90;;;;;;6194687;23;20020;-92
2022/04/08 02:53:18;;;;;;;0.80;0.80;;;3.10;99.90;;;;;;6195682;23;20020;-91
2022/04/08 02:55:48;;;;;;;1.10;0.68;;;3.10;99.90;;;;;;6221323;23;20027;-93
2022/04/08 02:58:23;;;;;;;1.55;0.95;;;3.10;99.90;;;;;;6173564;23;20013;-93
2022/04/08 03:01:01;;;;;;;1.70;1.60;;;2.10;99.90;;;;;;6148728;23;20047;-93
2022/04/08 03:03:30;;;;;;;3.83;0.80;;;2.10;99.90;;;;;;6195978;23;20022;-93
2022/04/08 03:05:57;;;;;;;3.50;0.80;;;3.10;99.90;;;;;;6195771;23;20055;-93
2022/04/08 03:08:28;;;;;;;4.28;1.10;;;3.10;99.90;;;;;;6220245;23;20054;-92
2022/04/08 03:10:57;;;;;;;0.75;0.70;;;4.30;99.90;;;;;;6222609;23;20095;-93
2022/04/08 03:13:50;;;;;;;2.60;1.13;;;3.10;99.90;;;;;;6196509;23;20078;-92
2022/04/08 03:16:28;;;;;;;;;;;;;;;;;;;;;
2022/04/08 03:19:13;;;;;;;1.48;1.25;;;3.10;99.90;;;;;;6219749;23;20016;-94
2022/04/08 03:21:51;;;;;;;1.30;1.02;;;3.20;99.90;;;;;;6197360;23;20099;-93
2022/04/08 03:24:19;;;;;;;7.78;2.25;;;3.10;99.90;;;;;;6222676;23;20012;-93
2022/04/08 03:26:51;;;;;;;0.70;0.70;;;2.30;99.90;;;;;;6197246;23;20035;-94
2022/04/08 03:29:22;;;;;;;3.22;1.35;;;3.00;99.90;;;;;;6175068;23;20102;-93
2022/04/08 03:31:50;;;;;;;2.97;1.40;;;3.00;99.90;;;;;;6171122;23;20070;-93
2022/04/08 03:34:19;;;;;;;3.45;1.60;;;2.90;99.90;;;;;;6171337;23;20047;-93
2022/04/08 03:36:50;;;;;;;2.20;1.50;;;3.00;99.90;;;;;;6222120;23;20035;-93
2022/04/08 03:39:27;;;;;;;5.28;1.67;;;3.00;99.90;;;;;;6174635;23;20019;-93
2022/04/08 03:41:55;;;;;;;3.88;1.60;;;2.90;99.90;;;;;;6197750;23;20520;-94
2022/04/08 03:44:33;;;;;;;2.00;1.00;;;3.50;99.90;;;;;;6198375;23;20095;-93
2022/04/08 03:47:04;;;;;;;1.90;1.25;;;2.90;99.90;;;;;;6198119;23;20019;-93
2022/04/08 03:49:33;;;;;;;1.08;0.88;;;2.90;99.90;;;;;;6173088;23;20378;-93
2022/04/08 03:52:15;;;;;;;1.95;1.20;;;2.80;99.90;;;;;;6196864;23;20023;-93
2022/04/08 03:54:56;;;;;;;2.17;1.20;;;2.90;99.90;;;;;;6173305;23;20020;-92
2022/04/08 03:57:25;;;;;;;2.50;1.52;;;2.90;99.90;;;;;;6194264;23;20456;-92
2022/04/08 04:00:18;;;;;;;1.30;1.20;;;3.00;99.90;;;;;;6195891;23;20123;-94
2022/04/08 04:02:44;;;;;;;19.88;3.10;;;2.90;99.90;;;;;;6220817;23;20384;-91
2022/04/08 04:05:18;;;;;;;3.07;1.50;;;3.00;99.90;;;;;;6194193;23;20020;-92
2022/04/08 04:07:44;;;;;;;1.50;1.30;;;3.00;99.90;;;;;;6199198;23;20046;-93
2022/04/08 04:10:15;;;;;;;2.60;1.13;;;3.10;99.90;;;;;;6198721;23;20074;-94
2022/04/08 04:13:05;;;;;;;0.77;0.52;;;3.10;99.90;;;;;;6198922;23;20016;-93
2022/04/08 04:15:36;;;;;;;0.75;0.70;;;3.00;99.90;;;;;;6194744;23;20086;-94
2022/04/08 04:18:05;;;;;;;0.63;0.60;;;3.10;99.90;;;;;;6170904;23;20055;-94
2022/04/08 04:20:36;;;;;;;0.75;0.40;;;2.90;99.90;;;;;;6196734;23;20039;-94
2022/04/08 04:23:12;;;;;;;1.15;0.85;;;3.70;99.90;;;;;;6197181;23;20016;-93
2022/04/08 04:25:41;;;;;;;0.65;0.65;;;2.70;99.90;;;;;;6149800;23;20016;-94
2022/04/08 04:28:18;;;;;;;0.75;0.73;;;3.90;99.90;;;;;;6194979;23;20094;-94
2022/04/08 04:31:04;;;;;;;0.57;0.57;;;2.80;99.90;;;;;;6172098;23;20020;-94
2022/04/08 04:33:44;;;;;;;0.50;0.50;;;4.00;99.90;;;;;;6174593;23;20026;-94
2022/04/08 04:36:13;;;;;;;0.93;0.77;;;4.00;99.90;;;;;;6174101;23;20415;-94
2022/04/08 04:38:52;;;;;;;1.80;0.77;;;2.70;99.90;;;;;;6198337;23;20023;-94
2022/04/08 04:41:21;;;;;;;1.55;0.75;;;2.70;99.90;;;;;;6174363;23;20123;-94
2022/04/08 04:43:52;;;;;;;0.32;0.32;;;3.90;99.90;;;;;;6194533;23;20020;-94
2022/04/08 04:46:23;;;;;;;1.85;0.65;;;2.60;99.90;;;;;;6194739;23;20508;-94
2022/04/08 04:49:02;;;;;;;0.63;0.63;;;2.50;99.90;;;;;;6196101;23;20023;-95
2022/04/08 04:51:41;;;;;;;0.70;0.70;;;2.60;99.90;;;;;;6174601;23;20055;-94
2022/04/08 04:54:09;;;;;;;0.98;0.65;;;2.50;99.90;;;;;;6194547;23;20051;-94
2022/04/08 04:56:47;;;;;;;;;;;;;;;;;;;;;
2022/04/08 04:59:20;;;;;;;0.30;0.30;;;3.50;99.90;;;;;;6221259;23;20070;-94
2022/04/08 05:01:51;;;;;;;0.93;0.60;;;3.20;99.90;;;;;;6197005;23;20118;-95
2022/04/08 05:04:35;;;;;;;0.82;0.68;;;1.70;99.90;;;;;;6176140;23;20034;-94
2022/04/08 05:07:26;;;;;;;;;;;;;;;;;;;;;
2022/04/08 05:10:08;;;;;;;0.85;0.85;;;1.50;99.90;;;;;;6220879;23;20511;-95
2022/04/08 05:13:08;;;;;;;0.77;0.77;;;2.30;99.90;;;;;;6222356;23;20078;-94
2022/04/08 05:15:47;;;;;;;1.27;1.08;;;2.40;99.90;;;;;;6197496;23;20356;-94
2022/04/08 05:18:18;;;;;;;0.98;0.95;;;1.90;99.90;;;;;;6197042;23;20071;-93
2022/04/08 05:20:56;;;;;;;;;;;;;;;;;;;;;
2022/04/08 05:24:12;;;;;;;;;;;;;;;;;;;;;
2022/04/08 05:26:42;;;;;;;3.63;0.98;;;2.70;99.90;;;;;;6221230;23;20460;-93
2022/04/08 05:29:20;;;;;;;3.88;0.80;;;2.90;99.90;;;;;;6197109;23;20520;-96
2022/04/08 05:31:56;;;;;;;0.77;0.77;;;4.20;99.90;;;;;;6174528;23;20070;-94
2022/04/08 05:34:31;;;;;;;1.00;0.93;;;2.50;99.90;;;;;;6174530;23;20020;-96
2022/04/08 05:37:14;;;;;;;;;;;;;;;;;;;;;
2022/04/08 05:39:57;;;;;;;1.20;1.05;;;3.20;99.90;;;;;;6219655;23;20012;-94
2022/04/08 05:42:52;;;;;;;;;;;;;;;;;;;;;
2022/04/08 05:45:21;;;;;;;3.58;1.25;;;3.20;99.90;;;;;;6221192;23;20091;-95
2022/04/08 05:48:10;;;;;;;2.10;1.42;;;4.10;99.90;;;;;;6172889;23;20052;-94
2022/04/08 05:50:36;;;;;;;2.20;0.93;;;3.20;99.90;;;;;;6177573;23;20027;-95
2022/04/08 05:53:29;;;;;;;;;;;;;;;;;;;;;
2022/04/08 05:58:59;;;;;;;;;;;;;;;;;;;;;
2022/04/08 06:01:43;;;;;;;4.07;1.42;;;3.30;99.90;;;;;;6201194;23;20016;-94
2022/04/08 06:04:33;;;;;;;;;;;;;;;;;;;;;
2022/04/08 06:07:34;;;;;;;1.10;1.00;;;3.70;99.90;;;;;;6203727;23;20012;-94
2022/04/08 06:13:42;;;;;;;;;;;;;;;;;;;;;
2022/04/08 06:16:26;;;;;;;0.70;0.70;;;4.70;99.90;;;;;;6222954;23;20016;-88
2022/04/08 06:18:55;;;;;;;0.73;0.70;;;4.90;99.90;;;;;;6171942;23;20069;-91
2022/04/08 06:21:25;;;;;;;1.13;0.93;;;5.10;99.90;;;;;;6170525;23;20027;-91
2022/04/08 06:27:18;;;;;;;2.60;0.70;;;5.20;99.90;;;;;;6221960;23;20095;-88
2022/04/08 06:30:10;;;;;;;1.13;0.55;;;6.20;99.90;;;;;;6199494;23;20024;-91
2022/04/08 06:36:15;;;;;;;1.15;0.70;;;4.60;99.90;;;;;;6218694;23;20020;-88
2022/04/08 06:38:44;;;;;;;3.15;0.90;;;4.60;99.90;;;;;;6191810;23;20043;-87
2022/04/08 06:41:12;;;;;;;1.45;1.02;;;5.60;99.90;;;;;;6216701;23;20337;-86
2022/04/08 06:43:45;;;;;;;1.60;0.85;;;5.00;99.90;;;;;;6167275;23;20020;-91
2022/04/08 06:46:46;;;;;;;1.10;1.05;;;5.40;99.90;;;;;;6194566;23;20023;-90
2022/04/08 06:49:12;;;;;;;1.10;0.80;;;5.50;99.90;;;;;;6193227;23;20016;-89
2022/04/08 06:51:56;;;;;;;;;;;;;;;;;;;;;
2022/04/08 06:54:24;;;;;;;1.13;0.90;;;5.90;99.90;;;;;;6219240;23;20051;-87
2022/04/08 06:56:57;;;;;;;1.35;1.25;;;6.10;99.90;;;;;;6197605;23;20016;-90
2022/04/08 06:59:46;;;;;;;;;;;;;;;;;;;;;
2022/04/08 07:02:44;;;;;;;0.95;0.88;;;6.10;99.90;;;;;;6220242;23;20456;-89
2022/04/08 07:05:28;;;;;;;0.98;0.90;;;5.30;99.90;;;;;;6177358;23;20020;-91
2022/04/08 07:08:11;;;;;;;1.63;1.20;;;6.10;99.90;;;;;;6198691;23;20078;-91
2022/04/08 07:10:42;;;;;;;0.85;0.75;;;6.20;99.90;;;;;;6195924;23;20070;-90
2022/04/08 07:59:44;;;;;;;;;;;;;;;;;;;;;
2022/04/08 08:03:52;;;;;;;;;;;;;;;;;;;;;
2022/04/08 08:19:11;;;;;;;1.85;1.30;;;6.80;99.90;;;;;;5845089;24;20105;-94
2022/04/08 08:21:27;;;;;;;6.85;1.65;;;7.10;99.90;;;;;;5841348;24;20133;-90
2022/04/08 08:28:01;;;;;;;6.00;1.23;;;7.60;99.90;;;;;;5815287;24;20026;-89
2022/04/08 08:30:52;;;;;;;;;;;;;;;;;;;;;
2022/04/08 08:34:05;;;;;;;;;;;;;;;;;;;;;
2022/04/08 08:37:27;;;;;;;1.67;1.45;;;8.50;99.90;;;;;;5898149;24;20025;-92
2022/04/08 08:40:17;;;;;;;;;;;;;;;;;;;;;
2022/04/08 08:47:38;;;;;;;;;;;;;;;;;;;;;
2022/04/08 08:57:41;;;;;;;1.15;1.00;;;9.60;99.90;;;;;;5899486;24;20020;-89
2022/04/08 09:00:16;;;;;;;2.10;1.30;;;9.30;99.90;;;;;;5904397;24;20081;-88
2022/04/08 09:03:33;;;;;;;;;;;;;;;;;;;;;
2022/04/08 09:06:21;;;;;;;2.40;1.13;;;9.30;99.90;;;;;;6121642;23;20100;-87
2022/04/08 09:11:52;;;;;;;1.58;1.02;;;9.50;99.90;;;;;;6103171;23;20137;-91
2022/04/08 09:14:34;;;;;;;2.03;1.05;;;9.30;99.90;;;;;;6075726;23;20557;-89
2022/04/08 09:17:11;;;;;;;1.30;1.20;;;9.20;99.90;;;;;;6074292;23;20021;-92
2022/04/08 09:19:46;;;;;;;2.60;1.40;;;8.80;99.90;;;;;;6074595;23;20018;-93
2022/04/08 09:22:35;;;;;;;;;;;;;;;;;;;;;
2022/04/08 09:25:20;;;;;;;3.00;1.40;;;8.40;99.90;;;;;;6190711;23;20013;-92
2022/04/08 09:28:04;;;;;;;1.90;0.98;;;8.20;99.90;;;;;;6163794;23;20112;-91
2022/04/08 09:31:05;;;;;;;;;;;;;;;;;;;;;
2022/04/08 09:33:52;;;;;;;4.22;1.00;;;8.40;99.90;;;;;;6171206;23;20019;-90
2022/04/08 09:36:35;;;;;;;3.38;1.10;;;7.70;99.90;;;;;;6166588;23;20479;-90
2022/04/08 09:39:14;;;;;;;1.25;1.15;;;8.30;99.90;;;;;;6165191;23;20017;-90
2022/04/08 09:41:57;;;;;;;1.25;1.15;;;8.30;99.90;;;;;;6166315;23;20027;-86
2022/04/08 09:44:45;;;;;;;;;;;;;;;;;;;;;
2022/04/08 09:47:21;;;;;;;4.82;1.50;;;8.80;99.90;;;;;;6190538;23;20017;-90
2022/04/08 09:52:59;;;;;;;4.45;1.55;;;8.40;99.90;;;;;;6129314;23;20070;-89
2022/04/08 09:55:31;;;;;;;2.20;1.30;;;9.20;99.90;;;;;;6165509;23;20023;-89
2022/04/08 09:58:13;;;;;;;3.80;1.52;;;9.30;99.90;;;;;;6164676;23;20016;-89
2022/04/08 10:00:45;;;;;;;1.50;1.35;;;10.40;99.90;;;;;;6165103;23;20024;-90
2022/04/08 10:03:17;;;;;;;1.80;1.70;;;9.70;99.90;;;;;;6168593;23;20024;-88
2022/04/08 10:06:06;;;;;;;2.67;1.27;;;9.70;99.90;;;;;;6166106;23;20021;-87
2022/04/08 10:08:50;;;;;;;9.27;1.50;;;9.70;99.90;;;;;;6189003;23;20027;-87
2022/04/08 10:12:19;;;;;;;3.28;1.50;;;9.60;99.90;;;;;;6194786;23;20016;-86
2022/04/08 10:15:12;;;;;;;3.38;1.20;;;9.40;99.90;;;;;;6141424;23;20462;-91
2022/04/08 10:17:48;;;;;;;3.08;0.95;;;9.20;99.90;;;;;;6166703;23;20743;-86
2022/04/08 10:20:25;;;;;;;1.48;1.15;;;9.40;99.90;;;;;;6166685;23;20499;-88
2022/04/08 10:23:16;;;;;;;2.50;1.40;;;9.50;99.90;;;;;;6190270;23;20035;-88
2022/04/08 10:25:50;;;;;;;3.42;1.13;;;9.50;99.90;;;;;;6164917;23;20017;-86
2022/04/08 10:28:36;;;;;;;0.85;0.80;;;9.20;99.90;;;;;;6165142;23;20023;-86
2022/04/08 10:31:22;;;;;;;6.03;1.20;;;9.90;99.90;;;;;;6145981;23;20016;-88
2022/04/08 10:34:32;;;;;;;;;;;;;;;;;;;;;
2022/04/08 10:37:20;;;;;;;1.35;0.93;;;9.90;99.90;;;;;;6172753;23;20084;-89
2022/04/08 10:40:09;;;;;;;1.67;1.20;;;9.80;99.90;;;;;;6166691;23;20021;-86
2022/04/08 10:42:35;;;;;;;1.90;1.25;;;9.90;99.90;;;;;;6168226;23;20021;-87
2022/04/08 10:45:14;;;;;;;2.55;1.67;;;9.80;99.90;;;;;;6190161;23;20021;-87
2022/04/08 10:47:50;;;;;;;1.90;1.58;;;9.70;99.90;;;;;;6165675;23;20442;-87
2022/04/08 10:50:33;;;;;;;2.30;1.73;;;8.90;99.90;;;;;;6190682;23;20040;-87
2022/04/08 10:53:13;;;;;;;1.20;1.10;;;9.50;99.90;;;;;;6165198;23;20127;-89
2022/04/08 10:56:07;;;;;;;1.85;1.00;;;10.00;99.90;;;;;;6155786;23;20020;-88
2022/04/08 10:58:55;;;;;;;2.50;1.30;;;8.90;99.90;;;;;;6166834;23;20013;-91
2022/04/08 11:01:25;;;;;;;2.72;1.10;;;9.30;99.90;;;;;;6167642;23;20070;-87
2022/04/08 11:04:22;;;;;;;1.52;1.10;;;9.30;99.90;;;;;;6164870;23;20068;-91
2022/04/08 11:06:53;;;;;;;4.83;1.13;;;9.30;99.90;;;;;;6123933;23;20064;-87
2022/04/08 11:09:25;;;;;;;1.60;1.50;;;8.50;99.90;;;;;;6168026;23;20023;-86
2022/04/08 11:12:01;;;;;;;3.67;1.10;;;9.60;99.90;;;;;;6141119;23;20017;-89
2022/04/08 11:14:38;;;;;;;1.57;1.37;;;9.80;99.90;;;;;;6166720;23;20052;-87
2022/04/08 11:17:10;;;;;;;1.47;1.37;;;10.10;99.90;;;;;;6166094;23;20444;-87
2022/04/08 11:20:02;;;;;;;1.75;1.02;;;10.20;99.90;;;;;;6166641;23;20016;-86
2022/04/08 11:22:44;;;;;;;2.00;1.33;;;10.20;99.90;;;;;;6190054;23;20017;-85
2022/04/08 11:25:57;;;;;;;1.25;1.15;;;10.20;99.90;;;;;;6189233;23;20082;-86
2022/04/08 11:28:34;;;;;;;;;;;;;;;;;;;;;
2022/04/08 11:31:11;;;;;;;1.58;1.13;;;10.10;99.90;;;;;;6189416;23;20013;-86
2022/04/08 11:33:39;;;;;;;1.00;1.00;;;10.10;99.90;;;;;;6164445;23;20445;-88
2022/04/08 11:36:05;;;;;;;2.90;0.80;;;10.20;99.90;;;;;;6139944;23;20019;-87
2022/04/08 11:38:33;;;;;;;1.30;1.20;;;10.20;99.90;;;;;;6166585;23;20017;-86
2022/04/08 11:41:20;;;;;;;2.75;1.02;;;10.00;99.90;;;;;;6163824;23;20021;-87
2022/04/08 11:43:48;;;;;;;1.00;0.70;;;9.80;99.90;;;;;;6189150;23;20016;-86
2022/04/08 11:46:25;;;;;;;;;;;;;;;;;;;;;
2022/04/08 11:48:54;;;;;;;;;;;9.20;99.90;;;;;;6190011;23;20091;-86
2022/04/08 11:51:25;;;;;;;1.65;0.80;;;9.00;99.90;;;;;;6189501;23;19994;-86
2022/04/08 11:53:53;;;;;;;3.03;1.10;;;8.90;99.90;;;;;;6188858;23;20075;-86
2022/04/08 11:56:37;;;;;;;1.17;1.02;;;8.90;99.90;;;;;;6141417;23;20021;-86
2022/04/08 11:59:11;;;;;;;2.05;1.10;;;8.80;99.90;;;;;;6163932;23;20019;-86
2022/04/08 12:01:49;;;;;;;2.75;1.05;;;8.80;99.90;;;;;;6164201;23;20024;-87
2022/04/08 12:04:19;;;;;;;1.60;0.98;;;8.90;99.90;;;;;;6189256;23;20016;-87
2022/04/08 12:07:03;;;;;;;;;;;;;;;;;;;;;
2022/04/08 12:09:35;;;;;;;1.95;1.05;;;9.20;99.90;;;;;;6143697;23;20020;-88
2022/04/08 12:12:12;;;;;;;2.90;1.08;;;9.40;99.90;;;;;;6163161;23;20020;-88
2022/04/08 12:14:54;;;;;;;2.05;0.98;;;9.50;99.90;;;;;;6163666;23;20342;-88
2022/04/08 12:17:23;;;;;;;0.80;0.80;;;9.50;99.90;;;;;;6188036;23;20429;-87
2022/04/08 12:19:52;;;;;;;2.03;1.00;;;9.70;99.90;;;;;;6188015;23;20023;-88
2022/04/08 12:22:21;;;;;;;1.00;0.77;;;9.80;99.90;;;;;;6162883;23;20033;-87
2022/04/08 12:24:51;;;;;;;3.35;0.80;;;10.10;99.90;;;;;;6188063;23;20028;-87
2022/04/08 12:27:23;;;;;;;1.10;0.80;;;9.60;99.90;;;;;;6162297;23;20044;-86
2022/04/08 12:30:08;;;;;;;3.53;1.10;;;10.30;99.90;;;;;;6187988;23;20012;-88
2022/04/08 12:32:42;;;;;;;2.50;0.88;;;10.20;99.90;;;;;;6163043;23;20048;-86
2022/04/08 12:35:11;;;;;;;0.32;0.32;;;10.20;99.90;;;;;;6187844;23;20024;-86
2022/04/08 12:37:41;;;;;;;3.08;1.30;;;10.40;99.90;;;;;;6163260;23;20027;-86
2022/04/08 12:40:07;;;;;;;4.47;1.75;;;10.60;99.90;;;;;;6162400;23;20023;-86
2022/04/08 12:42:36;;;;;;;1.63;0.70;;;10.80;99.90;;;;;;6163391;23;20471;-86
2022/04/08 12:45:04;;;;;;;0.50;0.50;;;11.00;99.90;;;;;;6188005;23;20017;-87
2022/04/08 12:47:30;;;;;;;0.63;0.50;;;11.20;99.90;;;;;;6162696;23;20827;-86
2022/04/08 12:49:58;;;;;;;0.88;0.63;;;11.40;99.90;;;;;;6187918;23;20091;-87
2022/04/08 12:52:24;;;;;;;1.25;0.68;;;11.60;99.90;;;;;;6138664;23;20027;-87
2022/04/08 12:54:55;;;;;;;0.60;0.55;;;11.70;99.90;;;;;;6163481;23;20020;-87
2022/04/08 12:57:23;;;;;;;3.28;0.85;;;11.80;99.90;;;;;;6163384;23;20012;-87
2022/04/08 12:59:52;;;;;;;0.63;0.52;;;11.90;99.90;;;;;;6188185;23;20012;-87
2022/04/08 13:02:20;;;;;;;0.82;0.73;;;11.90;99.90;;;;;;6186740;23;20273;-89
2022/04/08 13:04:53;;;;;;;1.35;0.60;;;11.80;99.90;;;;;;6187390;23;20013;-87
2022/04/08 13:07:27;;;;;;;1.42;1.15;;;11.80;99.90;;;;;;6138763;23;20118;-85
2022/04/08 13:09:56;;;;;;;1.88;0.75;;;11.50;99.90;;;;;;6163181;23;20484;-86
2022/04/08 13:12:22;;;;;;;2.03;0.70;;;12.10;99.90;;;;;;6138909;23;20017;-86
2022/04/08 13:14:50;;;;;;;1.67;0.83;;;11.00;99.90;;;;;;6162924;23;20024;-84
2022/04/08 13:17:16;;;;;;;1.33;1.02;;;11.00;99.90;;;;;;6187086;23;20052;-86
2022/04/08 13:19:45;;;;;;;1.20;0.77;;;11.30;99.90;;;;;;6138772;23;20471;-87
2022/04/08 13:22:39;;;;;;;5.15;0.88;;;11.50;99.90;;;;;;6138649;23;20115;-86
2022/04/08 13:25:05;;;;;;;1.00;0.82;;;11.70;99.90;;;;;;6186999;23;20025;-86
2022/04/08 13:27:31;;;;;;;2.22;0.75;;;11.90;99.90;;;;;;6186704;23;20337;-86
2022/04/08 13:29:57;;;;;;;1.02;0.82;;;11.90;99.90;;;;;;6137897;23;20020;-85
2022/04/08 13:32:23;;;;;;;2.30;1.17;;;11.80;99.90;;;;;;6161780;23;20028;-88
2022/04/08 13:34:49;;;;;;;1.55;0.93;;;11.60;99.90;;;;;;6213869;23;20016;-86
2022/04/08 13:37:15;;;;;;;3.25;0.73;;;11.30;99.90;;;;;;6161812;23;20020;-87
2022/04/08 13:39:42;;;;;;;0.95;0.70;;;11.20;99.90;;;;;;6187628;23;20433;-86
2022/04/08 13:42:09;;;;;;;1.33;0.70;;;11.10;99.90;;;;;;6162909;23;20020;-86
2022/04/08 13:44:37;;;;;;;1.27;0.50;;;11.10;99.90;;;;;;6213852;23;20357;-86
2022/04/08 13:47:05;;;;;;;5.07;0.85;;;11.10;99.90;;;;;;6187538;23;20151;-86
2022/04/08 13:49:34;;;;;;;2.53;1.23;;;11.20;99.90;;;;;;6138023;23;20017;-84
2022/04/08 13:52:00;;;;;;;1.30;1.08;;;11.20;99.90;;;;;;6162689;23;20017;-86
2022/04/08 13:54:28;;;;;;;1.20;1.00;;;11.30;99.90;;;;;;6161335;23;20024;-87
2022/04/08 13:56:54;;;;;;;0.98;0.80;;;10.40;99.90;;;;;;6162898;23;20052;-86
2022/04/08 13:59:23;;;;;;;0.90;0.90;;;10.90;99.90;;;;;;6162127;23;20043;-85
2022/04/08 14:01:52;;;;;;;1.95;1.02;;;11.00;99.90;;;;;;6162961;23;20255;-85
2022/04/08 14:04:17;;;;;;;0.80;0.80;;;10.50;99.90;;;;;;6162152;23;20241;-86
2022/04/08 14:06:51;;;;;;;1.23;0.97;;;11.10;99.90;;;;;;6138287;23;20027;-85
2022/04/08 14:09:19;;;;;;;1.52;1.20;;;10.40;99.90;;;;;;6140419;23;20039;-87
2022/04/08 14:11:45;;;;;;;0.80;0.80;;;10.40;99.90;;;;;;6189515;23;20381;-85
2022/04/08 14:14:14;;;;;;;3.25;0.88;;;10.40;99.90;;;;;;6164345;23;20027;-86
2022/04/08 14:16:40;;;;;;;1.25;1.15;;;10.10;99.90;;;;;;6189044;23;20095;-85
2022/04/08 14:19:05;;;;;;;1.05;1.02;;;10.30;99.90;;;;;;6164300;23;20481;-86
2022/04/08 14:21:31;;;;;;;1.73;0.90;;;9.50;99.90;;;;;;6188998;23;20453;-85
2022/04/08 14:23:58;;;;;;;0.87;0.87;;;10.30;99.90;;;;;;6164812;23;20024;-87
2022/04/08 14:26:24;;;;;;;1.85;1.02;;;10.40;99.90;;;;;;6164647;23;20247;-86
2022/04/08 14:28:50;;;;;;;7.50;0.93;;;10.50;99.90;;;;;;6189674;23;20095;-86
2022/04/08 14:31:25;;;;;;;8.60;1.40;;;10.40;99.90;;;;;;6164024;23;20523;-92
2022/04/08 14:33:51;;;;;;;6.07;1.50;;;10.40;99.90;;;;;;6164502;23;20056;-85
2022/04/08 14:36:19;;;;;;;2.83;1.33;;;10.60;99.90;;;;;;6139405;23;20023;-91
2022/04/08 14:38:45;;;;;;;3.45;1.05;;;10.70;99.90;;;;;;6189221;23;20103;-85
2022/04/08 14:41:11;;;;;;;1.73;0.90;;;10.80;99.90;;;;;;6189465;23;20386;-85
2022/04/08 14:43:36;;;;;;;3.67;1.30;;;10.80;99.90;;;;;;6164056;23;20074;-84
2022/04/08 14:46:02;;;;;;;4.07;1.40;;;10.70;99.90;;;;;;6139633;23;20017;-86
2022/04/08 14:48:28;;;;;;;1.70;1.05;;;10.70;99.90;;;;;;6164046;23;20017;-86
2022/04/08 14:50:55;;;;;;;0.93;0.87;;;10.50;99.90;;;;;;6139868;23;20052;-85
2022/04/08 14:53:21;;;;;;;3.78;1.30;;;10.50;99.90;;;;;;6164385;23;20091;-90
2022/04/08 14:55:46;;;;;;;2.43;1.03;;;10.30;99.90;;;;;;6164620;23;20017;-86
2022/04/08 14:58:12;;;;;;;1.33;1.20;;;10.40;99.90;;;;;;6189835;23;20019;-86
2022/04/08 15:00:41;;;;;;;2.25;1.55;;;10.00;99.90;;;;;;6189251;23;20327;-85
2022/04/08 15:03:07;;;;;;;1.45;0.85;;;10.50;99.90;;;;;;6141023;23;20025;-85
2022/04/08 15:05:33;;;;;;;2.33;1.00;;;10.50;99.90;;;;;;6164180;23;20023;-85
2022/04/08 15:07:59;;;;;;;4.00;0.93;;;10.60;99.90;;;;;;6165705;23;20091;-85
2022/04/08 15:10:24;;;;;;;2.17;1.77;;;10.50;99.90;;;;;;6165804;23;20467;-86
2022/04/08 15:12:50;;;;;;;1.80;0.90;;;10.50;99.90;;;;;;6164918;23;20258;-86
2022/04/08 15:15:16;;;;;;;1.67;1.17;;;10.50;99.90;;;;;;6140494;23;20652;-86
2022/04/08 15:17:42;;;;;;;4.30;0.97;;;10.40;99.90;;;;;;6189267;23;20641;-85
2022/04/08 15:20:19;;;;;;;2.25;1.00;;;10.40;99.90;;;;;;6139328;23;20480;-85
2022/04/08 15:22:45;;;;;;;0.90;0.85;;;10.40;99.90;;;;;;6165417;23;20091;-86
2022/04/08 15:25:11;;;;;;;2.55;0.60;;;10.40;99.90;;;;;;6166178;23;20017;-85
2022/04/08 15:27:40;;;;;;;2.17;0.98;;;10.30;99.90;;;;;;6163492;23;20020;-86
2022/04/08 15:30:12;;;;;;;3.05;1.00;;;10.20;99.90;;;;;;6141089;23;20075;-85
2022/04/08 15:32:38;;;;;;;3.72;1.10;;;10.20;99.90;;;;;;6164475;23;20401;-85
2022/04/08 15:35:07;;;;;;;1.20;0.80;;;10.20;99.90;;;;;;6164059;23;20044;-85
2022/04/08 15:37:33;;;;;;;3.13;1.00;;;10.20;99.90;;;;;;6163682;23;20067;-85
2022/04/08 15:40:02;;;;;;;0.93;0.90;;;10.30;99.90;;;;;;6164291;23;20025;-85
2022/04/08 15:42:28;;;;;;;1.40;0.77;;;10.10;99.90;;;;;;6188161;23;20028;-86
2022/04/08 15:44:54;;;;;;;3.35;1.10;;;10.00;99.90;;;;;;6163789;23;20016;-86
2022/04/08 15:47:19;;;;;;;2.13;0.90;;;9.90;99.90;;;;;;6163580;23;20091;-85
2022/04/08 15:49:49;;;;;;;1.17;0.80;;;9.70;99.90;;;;;;6163304;23;20123;-85
2022/04/08 15:52:18;;;;;;;1.10;0.82;;;9.50;99.90;;;;;;6188907;23;20091;-85
2022/04/08 15:54:47;;;;;;;1.17;0.80;;;9.50;99.90;;;;;;6188207;23;20215;-86
2022/04/08 15:57:14;;;;;;;0.73;0.73;;;9.50;99.90;;;;;;6164357;23;20027;-85
2022/04/08 15:59:39;;;;;;;3.13;0.93;;;9.50;99.90;;;;;;6138779;23;20070;-86